Time;durP1;ratioP1;P1;durP2;ratioP2;P2;SDS_P1;SDS_P2;PMS_P1;PMS_P2;Temp;Humidity;BMP_temperature;BMP_pressure;BME280_temperature;BME280_humidity;BME280_pressure;Samples;Min_cycle;Max_cycle;Signal;HPM_P1;HPM_P2
2022/07/08 00:00:23;;;;;;;1.15;0.40;;;16.40;99.90;;;;;;4981233;28;20468;-67
2022/07/08 00:02:50;;;;;;;1.50;0.80;;;16.40;99.90;;;;;;4986061;28;20081;-65
2022/07/08 00:05:17;;;;;;;2.28;0.68;;;16.50;99.90;;;;;;4988960;28;20054;-65
2022/07/08 00:07:44;;;;;;;1.95;0.57;;;16.50;99.90;;;;;;4986385;28;20085;-64
2022/07/08 00:10:12;;;;;;;0.95;0.52;;;16.50;99.90;;;;;;4978889;28;20764;-68
2022/07/08 00:12:40;;;;;;;0.95;0.43;;;16.50;99.90;;;;;;4989692;28;20100;-72
2022/07/08 00:15:08;;;;;;;3.45;0.43;;;16.50;99.90;;;;;;4989284;28;20180;-65
2022/07/08 00:17:36;;;;;;;0.95;0.40;;;16.50;99.90;;;;;;4990343;28;20050;-66
2022/07/08 00:20:04;;;;;;;2.53;0.60;;;16.50;99.90;;;;;;4990667;28;20050;-66
2022/07/08 00:22:30;;;;;;;3.22;0.93;;;16.50;99.90;;;;;;4990352;28;20062;-68
2022/07/08 00:24:57;;;;;;;2.70;2.03;;;16.50;99.90;;;;;;4989097;28;20147;-71
2022/07/08 00:27:25;;;;;;;0.60;0.60;;;16.50;99.90;;;;;;4986356;28;20189;-70
2022/07/08 00:29:52;;;;;;;1.67;0.65;;;16.50;99.90;;;;;;4989797;28;20149;-69
2022/07/08 00:32:19;;;;;;;1.88;0.77;;;16.60;99.90;;;;;;4988496;28;20188;-72
2022/07/08 00:34:50;;;;;;;0.50;0.40;;;16.60;99.90;;;;;;4990182;28;20058;-67
2022/07/08 00:37:17;;;;;;;1.52;0.60;;;16.60;99.90;;;;;;4988128;28;20497;-72
2022/07/08 00:39:44;;;;;;;1.90;0.40;;;16.50;99.90;;;;;;4990410;28;20142;-65
2022/07/08 00:42:11;;;;;;;0.55;0.45;;;16.50;99.90;;;;;;4988815;28;20049;-72
2022/07/08 00:44:38;;;;;;;0.88;0.50;;;16.50;99.90;;;;;;4991000;28;20137;-65
2022/07/08 00:47:05;;;;;;;0.82;0.50;;;16.50;99.90;;;;;;4990368;28;20054;-70
2022/07/08 00:49:32;;;;;;;2.80;0.50;;;16.50;99.90;;;;;;4993480;28;20494;-73
2022/07/08 00:51:59;;;;;;;2.13;0.50;;;16.50;99.90;;;;;;4991983;28;20050;-66
2022/07/08 00:54:27;;;;;;;1.65;0.32;;;16.50;99.90;;;;;;4995135;28;20057;-67
2022/07/08 00:56:54;;;;;;;0.47;0.32;;;16.50;99.90;;;;;;4993163;28;20077;-75
2022/07/08 00:59:21;;;;;;;1.92;0.95;;;16.50;99.90;;;;;;4993146;28;20120;-72
2022/07/08 01:01:49;;;;;;;1.80;1.05;;;16.40;99.90;;;;;;4992480;28;20498;-74
2022/07/08 01:04:16;;;;;;;0.52;0.40;;;16.40;99.90;;;;;;4990947;28;20051;-68
2022/07/08 01:06:43;;;;;;;0.20;0.20;;;16.40;99.90;;;;;;4989917;28;20177;-66
2022/07/08 01:09:11;;;;;;;0.80;0.30;;;16.40;99.90;;;;;;4990940;28;20058;-65
2022/07/08 01:11:38;;;;;;;1.20;0.40;;;16.40;99.90;;;;;;4993171;28;20077;-69
2022/07/08 01:14:05;;;;;;;4.45;0.52;;;16.40;99.90;;;;;;4993832;28;20140;-68
2022/07/08 01:16:32;;;;;;;3.92;0.50;;;16.40;99.90;;;;;;4993334;28;20062;-66
2022/07/08 01:18:59;;;;;;;0.65;0.35;;;16.40;99.90;;;;;;4993227;28;20077;-72
2022/07/08 01:21:25;;;;;;;0.50;0.30;;;16.40;99.90;;;;;;4990765;28;20070;-67
2022/07/08 01:23:53;;;;;;;0.85;0.45;;;16.30;99.90;;;;;;4993452;28;20073;-66
2022/07/08 01:26:20;;;;;;;2.92;1.00;;;16.30;99.90;;;;;;4993460;28;20928;-74
2022/07/08 01:28:47;;;;;;;1.20;0.70;;;16.30;99.90;;;;;;4992688;28;20050;-67
2022/07/08 01:31:13;;;;;;;1.50;0.55;;;16.20;99.90;;;;;;4992501;28;20512;-70
2022/07/08 01:33:40;;;;;;;1.38;0.45;;;16.20;99.90;;;;;;4991580;28;20479;-71
2022/07/08 01:36:08;;;;;;;1.52;0.20;;;16.20;99.90;;;;;;4993093;28;20057;-66
2022/07/08 01:38:36;;;;;;;0.30;0.20;;;16.00;99.90;;;;;;4992876;28;20538;-68
2022/07/08 01:41:03;;;;;;;1.30;0.25;;;15.80;99.90;;;;;;4992978;28;20069;-73
2022/07/08 01:43:30;;;;;;;0.75;0.25;;;15.70;99.90;;;;;;4990396;28;20546;-68
2022/07/08 01:45:57;;;;;;;0.82;0.15;;;15.70;99.90;;;;;;4993254;28;20131;-69
2022/07/08 01:48:24;;;;;;;0.77;0.20;;;15.80;99.90;;;;;;4992416;28;20137;-72
2022/07/08 01:50:52;;;;;;;0.25;0.25;;;15.80;99.90;;;;;;4993274;28;20056;-66
2022/07/08 01:53:19;;;;;;;1.73;0.47;;;15.80;99.90;;;;;;4990145;28;20073;-68
2022/07/08 01:55:46;;;;;;;0.82;0.30;;;15.80;99.90;;;;;;4992517;28;20446;-75
2022/07/08 01:58:13;;;;;;;0.98;0.47;;;15.90;99.90;;;;;;4989555;28;20144;-66
2022/07/08 02:00:40;;;;;;;2.50;0.55;;;15.90;99.90;;;;;;4992227;28;20046;-70
2022/07/08 02:03:06;;;;;;;0.75;0.20;;;15.90;99.90;;;;;;4990645;28;20077;-67
2022/07/08 02:05:34;;;;;;;0.57;0.45;;;15.90;99.90;;;;;;4991306;28;20046;-66
2022/07/08 02:08:03;;;;;;;3.75;0.35;;;15.90;99.90;;;;;;4992530;28;20070;-65
2022/07/08 02:13:17;;;;;;;0.52;0.10;;;15.90;99.90;;;;;;4989341;28;20155;-70
2022/07/08 02:15:45;;;;;;;2.20;0.30;;;15.90;99.90;;;;;;4991515;28;20084;-72
2022/07/08 02:18:13;;;;;;;0.45;0.30;;;15.90;99.90;;;;;;4992537;28;20770;-69
2022/07/08 02:20:40;;;;;;;2.13;0.20;;;15.90;99.90;;;;;;4991835;28;20070;-69
2022/07/08 02:23:07;;;;;;;1.25;0.32;;;16.00;99.90;;;;;;4991118;28;20054;-71
2022/07/08 02:25:34;;;;;;;2.65;0.30;;;16.00;99.90;;;;;;4992078;28;20050;-65
2022/07/08 02:28:01;;;;;;;1.13;0.55;;;16.00;99.90;;;;;;4989776;28;20425;-73
2022/07/08 02:30:28;;;;;;;0.38;0.30;;;16.10;99.90;;;;;;4990898;28;20070;-72
2022/07/08 02:32:55;;;;;;;0.95;0.20;;;16.10;99.90;;;;;;4989599;28;20847;-66
2022/07/08 02:35:22;;;;;;;3.35;0.55;;;16.10;99.90;;;;;;4990555;28;20220;-64
2022/07/08 02:37:49;;;;;;;1.58;0.13;;;16.10;99.90;;;;;;4991529;28;20187;-72
2022/07/08 02:40:16;;;;;;;0.80;0.50;;;16.10;99.90;;;;;;4990774;28;20105;-72
2022/07/08 02:42:43;;;;;;;0.90;0.57;;;16.20;99.90;;;;;;4990968;28;20408;-66
2022/07/08 02:45:10;;;;;;;5.45;0.30;;;16.20;99.90;;;;;;4989965;28;20070;-70
2022/07/08 02:47:37;;;;;;;0.40;0.25;;;16.20;99.90;;;;;;4991375;28;20135;-66
2022/07/08 02:50:05;;;;;;;1.33;0.20;;;16.20;99.90;;;;;;4990719;28;20428;-68
2022/07/08 02:52:32;;;;;;;0.75;0.32;;;16.20;99.90;;;;;;4990250;28;20047;-73
2022/07/08 02:54:59;;;;;;;0.68;0.20;;;16.20;99.90;;;;;;4989760;28;20733;-67
2022/07/08 02:57:26;;;;;;;1.35;0.32;;;16.20;99.90;;;;;;4988983;28;20066;-67
2022/07/08 02:59:53;;;;;;;0.82;0.30;;;16.30;99.90;;;;;;4990810;28;20574;-73
2022/07/08 03:02:20;;;;;;;0.32;0.30;;;16.30;99.90;;;;;;4990700;28;20104;-70
2022/07/08 03:04:47;;;;;;;2.90;1.38;;;16.40;99.90;;;;;;4991858;28;20140;-69
2022/07/08 03:07:14;;;;;;;1.02;0.40;;;16.40;99.90;;;;;;4989054;28;20078;-66
2022/07/08 03:09:41;;;;;;;1.85;0.40;;;16.40;99.90;;;;;;4989367;28;20080;-66
2022/07/08 03:12:08;;;;;;;1.05;0.30;;;16.40;99.90;;;;;;4990939;28;20171;-68
2022/07/08 03:14:35;;;;;;;3.53;0.30;;;16.40;99.90;;;;;;4990822;28;20132;-73
2022/07/08 03:17:02;;;;;;;1.55;0.55;;;16.30;99.90;;;;;;4991874;28;20258;-66
2022/07/08 03:19:29;;;;;;;1.05;0.20;;;16.30;99.90;;;;;;4988952;28;20126;-67
2022/07/08 03:21:56;;;;;;;2.60;0.35;;;16.30;99.90;;;;;;4991560;28;20081;-70
2022/07/08 03:24:23;;;;;;;0.20;0.10;;;16.40;99.90;;;;;;4990773;28;20078;-66
2022/07/08 03:26:50;;;;;;;1.40;0.30;;;16.40;99.90;;;;;;4991521;28;20145;-69
2022/07/08 03:29:17;;;;;;;1.02;0.43;;;16.40;99.90;;;;;;4989530;28;20542;-71
2022/07/08 03:31:44;;;;;;;0.57;0.20;;;16.50;99.90;;;;;;4990678;28;20046;-65
2022/07/08 03:34:11;;;;;;;0.40;0.20;;;16.50;99.90;;;;;;4989899;28;20041;-70
2022/07/08 03:36:38;;;;;;;0.10;0.10;;;16.50;99.90;;;;;;4991168;28;20053;-70
2022/07/08 03:39:05;;;;;;;1.17;0.30;;;16.50;99.90;;;;;;4987844;28;20149;-67
2022/07/08 03:41:32;;;;;;;2.85;1.05;;;16.50;99.90;;;;;;4990877;28;20100;-70
2022/07/08 03:43:59;;;;;;;1.02;0.50;;;16.40;99.90;;;;;;4991547;28;20066;-70
2022/07/08 03:46:26;;;;;;;1.67;1.58;;;16.40;99.90;;;;;;4990946;28;20123;-66
2022/07/08 03:48:53;;;;;;;1.17;0.30;;;16.40;99.90;;;;;;4991053;28;20061;-65
2022/07/08 03:51:21;;;;;;;2.70;0.85;;;16.40;99.90;;;;;;4989653;28;20077;-74
2022/07/08 03:53:47;;;;;;;4.35;0.88;;;16.40;99.90;;;;;;4991639;28;20126;-65
2022/07/08 03:56:14;;;;;;;0.57;0.30;;;16.40;99.90;;;;;;4991596;28;20070;-68
2022/07/08 03:58:41;;;;;;;1.42;0.40;;;16.40;99.90;;;;;;4990696;28;20140;-68
2022/07/08 04:01:08;;;;;;;0.55;0.32;;;16.40;99.90;;;;;;4988240;28;20077;-71
2022/07/08 04:03:35;;;;;;;0.20;0.20;;;16.50;99.90;;;;;;4990497;28;20167;-67
2022/07/08 04:06:02;;;;;;;0.57;0.35;;;16.40;99.90;;;;;;4990018;28;20575;-69
2022/07/08 04:08:29;;;;;;;0.70;0.30;;;16.50;99.90;;;;;;4988250;28;20746;-66
2022/07/08 04:10:57;;;;;;;0.98;0.93;;;16.40;99.90;;;;;;4989378;28;20042;-68
2022/07/08 04:13:27;;;;;;;1.17;0.30;;;16.50;99.90;;;;;;4988555;28;20078;-68
2022/07/08 04:15:57;;;;;;;0.75;0.30;;;16.50;99.90;;;;;;4987958;28;20061;-65
2022/07/08 04:18:27;;;;;;;;;;;16.50;99.90;;;;;;4988970;28;20686;-69
2022/07/08 04:20:54;;;;;;;1.88;0.57;;;16.50;99.90;;;;;;4992171;28;20008;-70
2022/07/08 04:23:21;;;;;;;0.50;0.30;;;16.50;99.90;;;;;;4990909;28;20077;-65
2022/07/08 04:25:54;;;;;;;0.20;0.20;;;16.60;99.90;;;;;;4993717;28;20046;-65
2022/07/08 04:28:21;;;;;;;2.65;0.52;;;16.60;99.90;;;;;;4991487;28;20050;-70
2022/07/08 04:30:48;;;;;;;0.30;0.30;;;16.70;99.90;;;;;;4992404;28;20057;-66
2022/07/08 04:33:15;;;;;;;2.38;0.52;;;16.70;99.90;;;;;;4991760;28;20050;-67
2022/07/08 04:35:42;;;;;;;1.50;0.60;;;16.70;99.90;;;;;;4992393;28;20112;-64
2022/07/08 04:38:09;;;;;;;1.33;0.55;;;16.80;99.90;;;;;;4992315;28;20487;-69
2022/07/08 04:40:36;;;;;;;0.95;0.32;;;16.80;99.90;;;;;;4993437;28;20135;-66
2022/07/08 04:43:03;;;;;;;1.30;0.50;;;16.90;99.90;;;;;;4992248;28;20142;-66
2022/07/08 04:45:30;;;;;;;1.38;0.32;;;16.90;99.90;;;;;;4991491;28;20057;-66
2022/07/08 04:47:57;;;;;;;0.20;0.20;;;16.90;99.90;;;;;;4991466;28;20101;-72
2022/07/08 04:50:24;;;;;;;1.80;0.43;;;16.90;99.90;;;;;;4992815;28;20120;-65
2022/07/08 04:52:51;;;;;;;0.30;0.20;;;16.90;99.90;;;;;;4993579;28;20101;-72
2022/07/08 04:55:31;;;;;;;1.27;0.43;;;17.00;99.90;;;;;;4990245;28;20066;-67
2022/07/08 04:58:02;;;;;;;0.30;0.20;;;17.00;99.90;;;;;;4992152;28;20764;-66
2022/07/08 05:00:31;;;;;;;3.55;0.70;;;17.10;99.90;;;;;;4993230;28;20920;-69
2022/07/08 05:02:58;;;;;;;1.20;0.28;;;17.10;99.90;;;;;;4991833;28;20060;-68
2022/07/08 05:05:27;;;;;;;0.85;0.47;;;17.10;99.90;;;;;;4991318;28;20061;-66
2022/07/08 05:07:55;;;;;;;0.47;0.15;;;17.10;99.90;;;;;;4991980;28;20172;-67
2022/07/08 05:10:23;;;;;;;1.63;0.70;;;17.20;99.90;;;;;;4993231;28;20061;-65
2022/07/08 05:12:50;;;;;;;0.40;0.40;;;17.10;99.90;;;;;;4993104;28;20183;-69
2022/07/08 05:15:18;;;;;;;1.48;0.25;;;17.10;99.90;;;;;;4993247;28;20531;-69
2022/07/08 05:17:45;;;;;;;0.52;0.30;;;17.10;99.90;;;;;;4991190;28;20073;-69
2022/07/08 05:20:12;;;;;;;2.63;0.82;;;17.20;99.90;;;;;;4993625;28;20054;-66
2022/07/08 05:22:40;;;;;;;1.33;0.30;;;17.20;99.90;;;;;;4991739;28;21492;-66
2022/07/08 05:25:08;;;;;;;0.30;0.20;;;17.20;99.90;;;;;;4989229;28;20043;-68
2022/07/08 05:27:35;;;;;;;2.00;0.20;;;17.30;99.90;;;;;;4992330;28;20054;-67
2022/07/08 05:30:04;;;;;;;0.22;0.22;;;17.30;99.90;;;;;;4993176;28;20069;-68
2022/07/08 05:32:32;;;;;;;0.10;0.10;;;17.40;99.90;;;;;;4989456;28;20049;-70
2022/07/08 05:35:00;;;;;;;2.00;0.10;;;17.40;99.90;;;;;;4992406;28;20475;-69
2022/07/08 05:37:28;;;;;;;0.25;0.20;;;17.50;99.90;;;;;;4990809;28;20050;-66
2022/07/08 05:39:55;;;;;;;0.22;0.22;;;17.50;99.90;;;;;;4991409;28;20458;-68
2022/07/08 05:42:23;;;;;;;0.30;0.30;;;17.50;99.90;;;;;;4990230;28;20575;-68
2022/07/08 05:44:50;;;;;;;0.32;0.32;;;17.60;99.90;;;;;;4993188;28;20444;-71
2022/07/08 05:47:17;;;;;;;2.03;0.20;;;17.60;99.90;;;;;;4988702;28;20144;-72
2022/07/08 05:49:44;;;;;;;1.38;0.10;;;17.70;99.90;;;;;;4991537;28;20128;-65
2022/07/08 05:52:11;;;;;;;0.43;0.30;;;17.80;99.90;;;;;;4989892;28;20242;-67
2022/07/08 05:54:38;;;;;;;1.90;0.20;;;17.90;99.90;;;;;;4990075;28;20560;-69
2022/07/08 05:57:06;;;;;;;0.20;0.20;;;17.90;99.90;;;;;;4988587;28;20100;-72
2022/07/08 05:59:33;;;;;;;1.77;0.35;;;17.90;99.90;;;;;;4990955;28;20459;-71
2022/07/08 06:02:00;;;;;;;3.20;0.52;;;17.90;99.90;;;;;;4989265;28;20042;-68
2022/07/08 06:04:27;;;;;;;0.93;0.20;;;18.00;99.90;;;;;;4988312;28;20050;-68
2022/07/08 06:06:54;;;;;;;0.30;0.20;;;18.00;99.90;;;;;;4988132;28;20061;-68
2022/07/08 06:09:21;;;;;;;0.10;0.10;;;18.10;99.90;;;;;;4985525;28;20061;-65
2022/07/08 06:11:49;;;;;;;0.25;0.10;;;18.10;99.90;;;;;;4988498;28;21427;-67
2022/07/08 06:14:16;;;;;;;0.20;0.10;;;18.20;99.90;;;;;;4989290;28;20159;-64
2022/07/08 06:16:43;;;;;;;0.73;0.20;;;18.20;99.90;;;;;;4989247;28;20072;-67
2022/07/08 06:19:10;;;;;;;0.10;0.08;;;18.10;99.90;;;;;;4985905;28;20061;-71
2022/07/08 06:21:37;;;;;;;0.52;0.35;;;18.20;99.90;;;;;;4990145;28;20081;-68
2022/07/08 06:24:04;;;;;;;2.75;0.10;;;18.20;99.90;;;;;;4989886;28;20223;-67
2022/07/08 06:26:31;;;;;;;0.00;0.00;;;18.20;99.90;;;;;;4990916;28;20528;-70
2022/07/08 06:28:58;;;;;;;0.82;0.30;;;18.30;99.90;;;;;;4991134;28;20123;-64
2022/07/08 06:31:25;;;;;;;1.55;0.13;;;18.20;99.90;;;;;;4988416;28;20872;-65
2022/07/08 06:33:58;;;;;;;0.43;0.22;;;18.20;99.90;;;;;;4990176;28;20385;-66
2022/07/08 06:36:26;;;;;;;1.35;0.15;;;18.20;99.90;;;;;;4990259;28;20512;-72
2022/07/08 06:38:53;;;;;;;0.68;0.20;;;18.20;99.90;;;;;;4989172;28;20491;-67
2022/07/08 06:41:24;;;;;;;2.30;0.20;;;18.10;99.90;;;;;;4988276;28;22449;-68
2022/07/08 06:43:51;;;;;;;0.10;0.10;;;18.20;99.90;;;;;;4988743;28;20848;-74
2022/07/08 06:46:18;;;;;;;0.40;0.30;;;18.20;99.90;;;;;;4979847;28;20708;-69
2022/07/08 06:48:46;;;;;;;0.68;0.20;;;18.40;99.90;;;;;;4983967;28;20062;-67
2022/07/08 06:51:12;;;;;;;2.28;0.50;;;18.40;99.90;;;;;;4987752;28;21420;-73
2022/07/08 06:56:26;;;;;;;0.28;0.22;;;18.40;99.90;;;;;;4990489;28;20463;-70
2022/07/08 06:58:53;;;;;;;0.40;0.30;;;18.40;99.90;;;;;;4974372;28;20042;-67
2022/07/08 07:01:19;;;;;;;0.80;0.45;;;18.50;99.90;;;;;;4984132;28;20507;-66
2022/07/08 07:03:46;;;;;;;0.75;0.30;;;18.40;99.90;;;;;;4987861;28;20061;-66
2022/07/08 07:06:13;;;;;;;1.52;0.40;;;18.40;99.90;;;;;;4987494;28;20116;-69
2022/07/08 07:08:41;;;;;;;2.22;0.32;;;18.40;99.90;;;;;;4986286;28;20435;-71
2022/07/08 07:11:08;;;;;;;0.77;0.70;;;18.40;99.90;;;;;;4970259;28;20519;-73
2022/07/08 07:13:35;;;;;;;2.25;0.65;;;18.40;99.90;;;;;;4986109;28;20112;-70
2022/07/08 07:16:02;;;;;;;0.70;0.40;;;18.40;99.90;;;;;;4987736;28;20059;-68
2022/07/08 07:18:29;;;;;;;1.58;0.40;;;18.40;99.90;;;;;;4986613;28;20058;-73
2022/07/08 07:20:57;;;;;;;0.40;0.30;;;18.50;99.90;;;;;;4986274;28;20133;-69
2022/07/08 07:23:23;;;;;;;0.73;0.60;;;18.60;99.90;;;;;;4986003;28;20054;-68
2022/07/08 07:25:50;;;;;;;2.80;0.30;;;18.70;99.90;;;;;;4987542;28;20053;-71
2022/07/08 07:28:17;;;;;;;1.13;0.70;;;18.70;99.90;;;;;;4986862;28;20740;-67
2022/07/08 07:30:44;;;;;;;0.57;0.32;;;18.60;99.90;;;;;;4987642;28;20058;-69
2022/07/08 07:33:15;;;;;;;;;;;18.70;99.90;;;;;;4987383;28;20050;-71
2022/07/08 07:35:42;;;;;;;3.50;0.52;;;18.70;99.90;;;;;;4988038;28;20298;-67
2022/07/08 07:38:09;;;;;;;2.80;0.77;;;18.90;99.90;;;;;;4987735;28;20112;-64
2022/07/08 07:40:36;;;;;;;0.17;0.17;;;18.90;99.90;;;;;;4987885;28;20058;-70
2022/07/08 07:43:03;;;;;;;0.30;0.20;;;18.90;99.90;;;;;;4988051;28;20550;-71
2022/07/08 07:45:30;;;;;;;0.45;0.45;;;19.00;99.90;;;;;;4987710;28;20975;-70
2022/07/08 07:47:57;;;;;;;0.55;0.38;;;19.00;99.90;;;;;;4988047;28;20050;-72
2022/07/08 07:50:25;;;;;;;0.25;0.20;;;19.10;99.90;;;;;;4988560;28;20133;-64
2022/07/08 07:52:53;;;;;;;0.73;0.30;;;19.10;99.90;;;;;;4987985;28;20436;-72
2022/07/08 07:55:20;;;;;;;1.08;0.40;;;19.10;99.90;;;;;;4989438;28;20132;-72
2022/07/08 07:57:48;;;;;;;0.57;0.30;;;19.00;99.90;;;;;;4992961;28;20109;-66
2022/07/08 08:00:16;;;;;;;1.45;0.30;;;19.00;99.90;;;;;;4991599;28;20116;-67
2022/07/08 08:02:43;;;;;;;0.38;0.30;;;18.90;99.90;;;;;;4990562;28;20053;-73
2022/07/08 08:05:11;;;;;;;1.85;0.22;;;18.90;99.90;;;;;;4991402;28;20070;-69
2022/07/08 08:07:39;;;;;;;1.45;0.25;;;18.80;99.90;;;;;;4994197;28;20527;-67
2022/07/08 08:10:07;;;;;;;0.63;0.15;;;18.90;99.90;;;;;;4994655;28;20148;-68
2022/07/08 08:12:34;;;;;;;1.45;0.68;;;18.90;99.90;;;;;;4993781;28;20417;-69
2022/07/08 08:15:01;;;;;;;0.68;0.40;;;19.10;99.90;;;;;;4994783;28;20084;-68
2022/07/08 08:17:28;;;;;;;0.20;0.20;;;19.20;99.90;;;;;;4989866;28;20341;-73
2022/07/08 08:19:55;;;;;;;1.67;0.55;;;19.30;99.90;;;;;;4993365;28;20061;-66
2022/07/08 08:22:22;;;;;;;1.05;0.43;;;19.40;99.90;;;;;;4993644;28;20050;-66
2022/07/08 08:24:49;;;;;;;0.80;0.45;;;19.40;99.90;;;;;;4993144;28;20149;-69
2022/07/08 08:27:15;;;;;;;0.40;0.20;;;19.30;99.90;;;;;;4991266;28;20423;-66
2022/07/08 08:29:42;;;;;;;1.55;0.20;;;19.40;99.90;;;;;;4994525;28;20084;-71
2022/07/08 08:32:09;;;;;;;2.03;0.30;;;19.40;99.90;;;;;;4992146;28;20050;-73
2022/07/08 08:34:36;;;;;;;0.40;0.30;;;19.50;99.90;;;;;;4993455;28;20061;-68
2022/07/08 08:37:03;;;;;;;0.80;0.20;;;19.60;99.90;;;;;;4993087;28;20050;-65
2022/07/08 08:39:30;;;;;;;0.20;0.20;;;19.50;99.90;;;;;;4992223;28;20061;-70
2022/07/08 08:41:58;;;;;;;0.43;0.25;;;19.40;99.90;;;;;;4995425;28;20173;-66
2022/07/08 08:44:26;;;;;;;0.52;0.20;;;19.60;99.90;;;;;;4994733;28;20074;-68
2022/07/08 08:46:53;;;;;;;1.83;0.30;;;19.60;99.90;;;;;;4993525;28;20068;-67
2022/07/08 08:49:20;;;;;;;1.05;0.28;;;19.50;99.90;;;;;;4992505;28;20065;-66
2022/07/08 08:51:50;;;;;;;5.38;0.38;;;19.60;99.90;;;;;;4994184;28;20046;-66
2022/07/08 08:54:18;;;;;;;0.22;0.20;;;19.60;99.90;;;;;;4994502;28;20061;-68
2022/07/08 08:56:49;;;;;;;0.55;0.30;;;19.50;99.90;;;;;;4993952;28;20057;-66
2022/07/08 08:59:24;;;;;;;0.50;0.25;;;19.60;99.90;;;;;;4991782;28;20076;-73
2022/07/08 09:01:53;;;;;;;0.88;0.32;;;19.50;99.90;;;;;;4993580;28;20116;-67
2022/07/08 09:04:21;;;;;;;0.68;0.25;;;19.40;99.90;;;;;;4994189;28;20065;-68
2022/07/08 09:06:47;;;;;;;0.30;0.20;;;19.40;99.90;;;;;;4994023;28;20168;-71
2022/07/08 09:09:14;;;;;;;2.03;0.38;;;19.50;99.90;;;;;;4992781;28;20165;-68
2022/07/08 09:11:43;;;;;;;0.30;0.30;;;19.60;99.90;;;;;;4993839;28;20108;-69
2022/07/08 09:14:17;;;;;;;0.40;0.40;;;19.60;99.90;;;;;;4993927;28;20112;-71
2022/07/08 09:17:12;;;;;;;0.40;0.25;;;19.60;99.90;;;;;;4993514;28;20101;-64
2022/07/08 09:19:52;;;;;;;0.47;0.47;;;19.70;99.90;;;;;;4990251;28;20074;-65
2022/07/08 09:22:23;;;;;;;0.60;0.30;;;19.70;99.90;;;;;;4994198;28;20054;-64
2022/07/08 09:24:50;;;;;;;0.38;0.30;;;19.70;99.90;;;;;;4993502;28;20594;-71
2022/07/08 09:27:18;;;;;;;0.22;0.22;;;19.70;99.90;;;;;;4991569;28;20081;-67
2022/07/08 09:29:59;;;;;;;0.30;0.20;;;19.80;99.90;;;;;;4993846;28;20075;-68
2022/07/08 09:32:27;;;;;;;0.10;0.10;;;19.90;99.90;;;;;;4992588;28;20170;-65
2022/07/08 09:34:54;;;;;;;0.75;0.17;;;20.00;99.90;;;;;;4994867;28;20057;-65
2022/07/08 09:37:21;;;;;;;0.63;0.15;;;20.10;99.90;;;;;;4991629;28;20100;-74
2022/07/08 09:39:48;;;;;;;0.20;0.20;;;20.10;99.90;;;;;;4993095;28;20053;-69
2022/07/08 09:42:17;;;;;;;1.85;0.40;;;20.10;99.90;;;;;;4993165;28;20476;-69
2022/07/08 09:44:51;;;;;;;0.80;0.30;;;19.80;99.90;;;;;;4992624;28;20136;-65
2022/07/08 09:47:18;;;;;;;0.20;0.20;;;19.40;99.90;;;;;;4991387;28;20101;-69
2022/07/08 09:49:47;;;;;;;0.20;0.20;;;19.60;99.90;;;;;;4992626;28;20077;-75
2022/07/08 09:52:22;;;;;;;0.20;0.20;;;19.70;99.90;;;;;;4992619;28;20046;-66
2022/07/08 09:55:00;;;;;;;2.13;0.25;;;19.60;99.90;;;;;;4993699;28;20078;-68
2022/07/08 09:57:29;;;;;;;0.75;0.30;;;19.70;99.90;;;;;;4991144;28;21365;-67
2022/07/08 09:59:57;;;;;;;0.30;0.30;;;19.90;99.90;;;;;;4992608;28;20054;-64
2022/07/08 10:02:24;;;;;;;0.30;0.20;;;20.00;99.90;;;;;;4992649;28;20195;-66
2022/07/08 10:04:51;;;;;;;0.68;0.20;;;19.90;99.90;;;;;;4978812;28;20119;-65
2022/07/08 10:07:18;;;;;;;0.22;0.13;;;20.00;99.90;;;;;;4974492;28;20062;-65
2022/07/08 10:09:46;;;;;;;2.05;0.52;;;20.10;99.90;;;;;;4987466;28;20174;-68
2022/07/08 10:12:18;;;;;;;1.30;0.43;;;20.20;99.90;;;;;;4992767;28;20136;-67
2022/07/08 10:14:46;;;;;;;0.20;0.20;;;20.30;99.90;;;;;;4993493;28;20166;-65
2022/07/08 10:17:17;;;;;;;0.45;0.38;;;20.30;99.90;;;;;;4990025;28;20153;-72
2022/07/08 10:19:47;;;;;;;0.50;0.20;;;20.50;99.90;;;;;;4993641;28;20061;-71
2022/07/08 10:22:15;;;;;;;0.97;0.30;;;20.30;99.90;;;;;;4992381;28;20706;-66
2022/07/08 10:24:43;;;;;;;0.20;0.20;;;20.40;99.90;;;;;;4991952;28;20073;-67
2022/07/08 10:27:13;;;;;;;1.10;1.00;;;20.40;99.90;;;;;;4990818;28;20144;-66
2022/07/08 10:29:40;;;;;;;0.20;0.20;;;20.40;99.90;;;;;;4992492;28;20761;-68
2022/07/08 10:32:37;;;;;;;0.75;0.20;;;20.40;99.90;;;;;;4992026;28;20045;-70
2022/07/08 10:35:12;;;;;;;0.10;0.10;;;20.50;99.90;;;;;;4983132;28;20128;-71
2022/07/08 10:37:47;;;;;;;0.38;0.22;;;20.30;99.90;;;;;;4991771;28;20132;-65
2022/07/08 10:40:40;;;;;;;0.45;0.30;;;20.40;99.90;;;;;;4992061;28;20085;-65
2022/07/08 10:43:19;;;;;;;0.10;0.10;;;20.50;99.90;;;;;;4989650;28;20157;-64
2022/07/08 10:45:59;;;;;;;0.20;0.20;;;20.40;99.90;;;;;;4993669;28;20058;-69
2022/07/08 10:48:27;;;;;;;;;;;20.60;99.90;;;;;;4993500;28;20053;-68
2022/07/08 10:50:54;;;;;;;2.97;0.47;;;20.70;99.90;;;;;;4992238;28;20374;-67
2022/07/08 10:53:51;;;;;;;0.15;0.15;;;21.00;99.90;;;;;;4988943;28;20042;-72
2022/07/08 10:56:53;;;;;;;0.28;0.28;;;21.00;99.90;;;;;;4992189;28;20065;-66
2022/07/08 10:59:23;;;;;;;0.60;0.45;;;20.80;99.90;;;;;;4991463;28;20135;-67
2022/07/08 11:01:51;;;;;;;1.15;0.85;;;20.90;99.90;;;;;;4993387;28;20074;-65
2022/07/08 11:04:33;;;;;;;0.35;0.20;;;21.00;99.90;;;;;;4990586;28;20570;-68
2022/07/08 11:07:28;;;;;;;2.75;0.30;;;21.00;99.90;;;;;;4991474;28;20628;-73
2022/07/08 11:10:11;;;;;;;3.90;0.30;;;21.40;99.90;;;;;;4976819;28;20070;-67
2022/07/08 11:12:40;;;;;;;1.38;0.85;;;21.50;99.90;;;;;;4990919;28;20058;-68
2022/07/08 11:15:11;;;;;;;0.28;0.28;;;21.70;99.90;;;;;;4990051;28;20148;-73
2022/07/08 11:17:40;;;;;;;1.13;0.40;;;21.40;99.90;;;;;;4992198;28;20057;-65
2022/07/08 11:20:18;;;;;;;0.50;0.25;;;21.50;99.90;;;;;;4992076;28;20058;-67
2022/07/08 11:22:45;;;;;;;1.17;0.40;;;21.60;99.90;;;;;;4990993;28;20096;-71
2022/07/08 11:25:14;;;;;;;0.47;0.28;;;21.30;99.90;;;;;;4989228;28;20038;-71
2022/07/08 11:27:42;;;;;;;1.45;0.30;;;20.80;99.90;;;;;;4991647;28;20045;-72
2022/07/08 11:30:14;;;;;;;1.27;0.88;;;20.60;99.90;;;;;;4990801;28;20831;-66
2022/07/08 11:32:51;;;;;;;0.98;0.20;;;20.20;99.90;;;;;;4991331;28;20133;-65
2022/07/08 11:35:22;;;;;;;0.45;0.43;;;20.10;99.90;;;;;;4990865;28;20637;-67
2022/07/08 11:37:50;;;;;;;0.30;0.30;;;20.10;99.90;;;;;;4991169;28;20333;-69
2022/07/08 11:40:18;;;;;;;0.95;0.22;;;20.10;99.90;;;;;;4990940;28;20126;-68
2022/07/08 11:42:45;;;;;;;0.22;0.22;;;20.00;99.90;;;;;;4990667;28;20045;-66
2022/07/08 11:45:18;;;;;;;0.82;0.22;;;20.10;99.90;;;;;;4990442;28;20058;-66
2022/07/08 11:47:45;;;;;;;1.85;0.63;;;20.30;99.90;;;;;;4990746;28;20575;-64
2022/07/08 11:50:12;;;;;;;1.55;0.40;;;20.30;99.90;;;;;;4992339;28;20130;-67
2022/07/08 11:52:39;;;;;;;0.55;0.55;;;20.60;99.90;;;;;;4991583;28;20047;-69
2022/07/08 11:55:08;;;;;;;0.40;0.40;;;20.70;99.90;;;;;;4988249;28;20424;-70
2022/07/08 11:57:40;;;;;;;0.68;0.40;;;20.70;99.90;;;;;;4991700;28;20137;-65
2022/07/08 12:00:08;;;;;;;0.80;0.38;;;20.60;99.90;;;;;;4989413;28;20190;-65
2022/07/08 12:02:37;;;;;;;0.10;0.10;;;20.60;99.90;;;;;;4989635;28;20056;-67
2022/07/08 12:05:09;;;;;;;0.30;0.30;;;20.80;99.90;;;;;;4991672;28;20404;-66
2022/07/08 12:07:37;;;;;;;1.90;0.68;;;20.80;99.90;;;;;;4991557;28;20070;-75
2022/07/08 12:10:05;;;;;;;0.50;0.40;;;20.70;99.90;;;;;;4991470;28;20239;-67
2022/07/08 12:12:34;;;;;;;1.65;0.63;;;20.70;99.90;;;;;;4991653;28;20400;-68
2022/07/08 12:15:15;;;;;;;0.90;0.90;;;20.50;99.90;;;;;;4991241;28;20427;-69
2022/07/08 12:17:54;;;;;;;1.13;0.60;;;20.60;99.90;;;;;;4989032;28;20050;-66
2022/07/08 12:20:35;;;;;;;0.57;0.43;;;20.70;99.90;;;;;;4991818;28;20069;-68
2022/07/08 12:23:03;;;;;;;1.75;1.63;;;20.60;99.90;;;;;;4991945;28;21166;-67
2022/07/08 12:25:48;;;;;;;1.25;0.90;;;20.60;99.90;;;;;;4990109;28;20058;-70
2022/07/08 12:28:23;;;;;;;0.60;0.60;;;20.60;99.90;;;;;;4989875;28;20052;-65
2022/07/08 12:30:50;;;;;;;1.67;0.52;;;20.80;99.90;;;;;;4990912;28;20416;-65
2022/07/08 12:33:32;;;;;;;0.38;0.30;;;21.00;99.90;;;;;;4987665;28;20196;-66
2022/07/08 12:36:01;;;;;;;0.70;0.70;;;21.00;99.90;;;;;;4988954;28;20149;-67
2022/07/08 12:38:30;;;;;;;0.70;0.60;;;20.90;99.90;;;;;;4988948;28;20107;-67
2022/07/08 12:40:57;;;;;;;1.40;0.52;;;20.90;99.90;;;;;;4990252;28;20116;-66
2022/07/08 12:43:31;;;;;;;0.73;0.55;;;20.90;99.90;;;;;;4991868;28;20054;-70
2022/07/08 12:45:58;;;;;;;0.63;0.63;;;21.00;99.90;;;;;;4993686;28;20049;-69
2022/07/08 12:48:25;;;;;;;0.75;0.50;;;20.80;99.90;;;;;;5009300;28;20165;-69
2022/07/08 12:50:59;;;;;;;1.55;0.98;;;20.80;99.90;;;;;;4994359;28;20788;-65
2022/07/08 12:53:26;;;;;;;0.35;0.35;;;20.80;99.90;;;;;;4993791;28;20062;-66
2022/07/08 12:55:53;;;;;;;0.40;0.40;;;20.90;99.90;;;;;;4995663;28;20157;-71
2022/07/08 12:58:24;;;;;;;0.63;0.30;;;21.20;99.90;;;;;;4994298;28;20511;-68
2022/07/08 13:00:52;;;;;;;1.08;0.60;;;21.50;99.90;;;;;;4995024;28;20069;-69